This is the latest recevied weather packets stored in our database for station/object KC9DRE. If no packets are shown the sender has not sent any weather packets the latest 10 day(s).
| Time | Temp. | Humidity | Pressure | Rain* | Wind** | Luminosity | Snow |
|---|---|---|---|---|---|---|---|
| 1777903411 | 16.11° C | 74% | 1010.8 hPa | 0 mm | - | 252 W/m² | - |
| 1777903108 | 16.67° C | 72% | 1010.8 hPa | 0 mm | - | 240 W/m² | - |
| 1777902804 | 16.11° C | 74% | 1010.4 hPa | 0 mm | - | 619 W/m² | - |
| 1777902502 | 15.56° C | 76% | 1010.5 hPa | 0 mm | - | 572 W/m² | - |
| 1777902198 | 15° C | 79% | 1010.7 hPa | 0 mm | - | 502 W/m² | - |
| 1777901897 | 13.89° C | 81% | 1010.7 hPa | 0 mm | - | 502 W/m² | - |
| 1777901594 | 13.33° C | 83% | 1010.8 hPa | 0 mm | - | 303 W/m² | - |
| 1777901291 | 13.89° C | 83% | 1010.6 hPa | 0 mm | - | 92 W/m² | - |
| 1777900989 | 13.89° C | 83% | 1010.4 hPa | 0 mm | - | 101 W/m² | - |
| 1777900686 | 13.89° C | 83% | 1010.6 hPa | 0 mm | - | 171 W/m² | - |
| 1777900383 | 14.44° C | 83% | 1010.6 hPa | 0 mm | - | 169 W/m² | - |
| 1777900090 | 14.44° C | 83% | 1010.6 hPa | 0 mm | - | 189 W/m² | - |
| 1777899776 | 14.44° C | 82% | 1010.6 hPa | 0 mm | - | 176 W/m² | - |
| 1777899473 | 13.89° C | 85% | 1010.3 hPa | 0 mm | - | 198 W/m² | - |
| 1777899171 | 13.33° C | 89% | 1010.5 hPa | 0 mm | - | 150 W/m² | - |
| 1777898868 | 12.78° C | 89% | 1010.6 hPa | 0 mm | - | 136 W/m² | - |
| 1777898565 | 12.78° C | 89% | 1010.6 hPa | 0 mm | - | 125 W/m² | - |
| 1777898263 | 12.22° C | 90% | 1010.6 hPa | 0 mm | - | 107 W/m² | - |
| 1777897960 | 12.22° C | 90% | 1010.6 hPa | 0 mm | - | 101 W/m² | - |
| 1777897656 | 12.22° C | 90% | 1011 hPa | 0 mm | - | 75 W/m² | - |
| 1777897352 | 12.22° C | 90% | 1011.2 hPa | 0 mm | - | 42 W/m² | - |
| 1777897048 | 12.22° C | 89% | 1011.7 hPa | 0 mm | - | 34 W/m² | - |
| 1777896745 | 12.22° C | 89% | 1012 hPa | 0 mm | - | 9 W/m² | - |
| 1777896442 | 12.22° C | 88% | 1012 hPa | 0 mm | - | 7 W/m² | - |
| 1777896140 | 12.22° C | 88% | 1012.1 hPa | 0 mm | - | 6 W/m² | - |
* Rain latest hour (hover to see other rain measurements)
** Current wind speed in m/s (hover to see current wind gust speed)